Bourbonnais, IL

5:25 PM CST en Marzo 01, 2015 (GMT -0600)
Lewis University | Change Station
CLOSE
Current Station
Aeropuerto
Location: Romeoville,
Altura: 673 ft
Estaciones meteorológicas cercanas

Alt 673 ft 41.60 °N, 88.10 °W | Updated 10 minutes ago

Parcialmente nublado
Parcialmente nublado
22 ° F
Sensación térmica 11 ° F
N
10
Viento Variable Viento desde Oeste

Hoy
Alta -- | Baja -- ° F
--% Posibilidad de precipitaciones
Ayer
Alta -- | Baja -- ° F
Precip. -- pul
6:26 AM 5:42 PM
Gibosa creciente, 88% visible
Presión 30.29 pul
Visibilidad 10.0 Millas
Nubes Nublado 1800 ft
Vientos helados 11 ° F
Punto de rocío 16 ° F
Humedad 77%
Precipitaciones 0.00 pul
Espesor de la nieve No disponible.
UV 0 de una escala de 12
Polen .50 de una escala de 12
Calidad del aire No disponible.
Flu Activity No disponible.
METAR KLOT 012315Z AUTO 27009KT 10SM OVC018 M06/M09 A3029 RMK AO2 T10571091

More Conditions Fewer Conditions

Presión 30.29 pul
Visibilidad 10.0 Millas
Nubes Nublado 1800 ft
Vientos helados 11 ° F
Punto de rocío 16 ° F
Humedad 77%
Precipitaciones 0.00 pul
Espesor de la nieve No disponible.
UV 0 de una escala de 12
Polen .50 de una escala de 12
Calidad del aire No disponible.
Flu Activity No disponible.
METAR KLOT 012315Z AUTO 27009KT 10SM OVC018 M06/M09 A3029 RMK AO2 T10571091

More Conditions Fewer Conditions

10-Day Weather Forecast

Almanac

Astronomía

Mar. 01, 2015 Salida Puesta
Hora real
Crepúsculo civil
Crepúsculo náutico
Crepúsculo astronómico
Luna
Horas de luz
Horas de luz
Tomorrow will be .
, % of the Moon is Illuminated

Extremos de hoy

Máximos del estado Bajos del estado

Community

WunderPhotos

Upload Photos

1,801,605 ¡fotos cargadas!

WunderBlogs® & News

Nearby

Calidad del aire

  Calidad del aire Índice AQ Contaminante
Not available.

Grosos de nieve

Estación Profundido Altura

Actividad de terremotos

Ciudad Distance Mag. Tiempo y dato
Magnitud mínima muestra es 2,5.

Temperaturas de aguas costeras

Lugar Temperatura

Estaciones meteorológicas cercanas